Time;durP1;ratioP1;P1;durP2;ratioP2;P2;SDS_P1;SDS_P2;PMS_P1;PMS_P2;Temp;Humidity;BMP_temperature;BMP_pressure;BME280_temperature;BME280_humidity;BME280_pressure;Samples;Min_cycle;Max_cycle;Signal;HPM_P1;HPM_P2
2022/07/16 00:05:11;;;;;;;2.60;1.70;;;22.60;20.30;;;;;;10441658;28;20224;-73
2022/07/16 00:10:15;;;;;;;2.00;1.80;;;22.50;20.30;;;;;;10442426;28;20683;-73
2022/07/16 00:15:19;;;;;;;2.33;2.23;;;22.50;20.50;;;;;;10443320;28;20240;-73
2022/07/16 00:20:23;;;;;;;5.03;2.13;;;22.40;20.90;;;;;;10440438;28;20237;-73
2022/07/16 00:25:26;;;;;;;2.10;2.00;;;22.30;20.50;;;;;;10439578;28;20576;-73
2022/07/16 00:30:31;;;;;;;2.13;2.03;;;22.20;20.70;;;;;;10441941;28;20590;-73
2022/07/16 00:35:34;;;;;;;1.73;1.63;;;22.10;21.00;;;;;;10436774;28;20221;-73
2022/07/16 00:40:37;;;;;;;1.70;1.60;;;22.00;20.70;;;;;;10438605;28;20233;-73
2022/07/16 00:45:42;;;;;;;3.43;1.70;;;22.00;20.80;;;;;;10439297;28;20229;-73
2022/07/16 00:50:46;;;;;;;1.80;1.70;;;21.90;21.30;;;;;;10438125;28;20232;-73
2022/07/16 00:55:49;;;;;;;1.70;1.60;;;21.80;21.00;;;;;;10433083;28;20225;-73
2022/07/16 01:00:54;;;;;;;1.93;1.83;;;21.70;21.00;;;;;;10437814;28;20221;-73
2022/07/16 01:05:58;;;;;;;2.27;2.07;;;21.70;21.40;;;;;;10435361;28;20222;-73
2022/07/16 01:11:02;;;;;;;2.10;1.80;;;21.60;21.50;;;;;;10435483;28;20235;-73
2022/07/16 01:16:09;;;;;;;2.20;2.00;;;21.50;21.30;;;;;;10431248;28;20225;-73
2022/07/16 01:21:13;;;;;;;3.03;1.90;;;21.30;21.70;;;;;;10438234;28;20236;-73
2022/07/16 01:26:17;;;;;;;3.27;2.40;;;21.20;21.40;;;;;;10435780;28;20229;-72
2022/07/16 01:31:21;;;;;;;4.27;3.87;;;21.10;21.90;;;;;;10438479;28;20294;-72
2022/07/16 01:36:24;;;;;;;4.53;3.93;;;21.10;21.70;;;;;;10439389;28;20240;-73
2022/07/16 01:41:29;;;;;;;4.30;3.37;;;21.00;22.00;;;;;;10432481;28;20698;-73
2022/07/16 01:46:32;;;;;;;4.70;3.17;;;20.80;22.10;;;;;;10432852;28;20780;-73
2022/07/16 01:51:35;;;;;;;3.00;2.80;;;20.70;22.20;;;;;;10434974;28;20988;-72
2022/07/16 01:56:40;;;;;;;3.00;2.60;;;20.60;22.20;;;;;;10430804;28;20235;-73
2022/07/16 02:01:43;;;;;;;2.63;2.40;;;20.50;22.50;;;;;;10434755;28;20221;-72
2022/07/16 02:06:46;;;;;;;2.80;2.60;;;20.40;22.50;;;;;;10437132;28;20718;-73
2022/07/16 02:11:51;;;;;;;2.70;2.50;;;20.30;22.60;;;;;;10435019;28;20225;-73
2022/07/16 02:16:54;;;;;;;2.10;2.00;;;20.20;23.10;;;;;;10436866;28;20220;-73
2022/07/16 02:22:00;;;;;;;2.10;2.00;;;20.10;22.70;;;;;;10431911;28;20226;-72
2022/07/16 02:27:05;;;;;;;2.40;2.20;;;20.00;22.80;;;;;;10430190;28;20217;-73
2022/07/16 02:32:08;;;;;;;2.03;1.90;;;20.00;23.60;;;;;;10436431;28;20228;-73
2022/07/16 02:37:11;;;;;;;2.50;2.30;;;19.90;23.00;;;;;;10432889;28;20229;-72
2022/07/16 02:42:15;;;;;;;4.70;2.63;;;19.90;23.10;;;;;;10438879;28;20233;-73
2022/07/16 02:47:19;;;;;;;3.37;2.33;;;19.80;23.30;;;;;;10434128;28;20290;-73
2022/07/16 02:52:22;;;;;;;2.60;2.30;;;19.60;22.90;;;;;;10434566;28;20241;-72
2022/07/16 02:57:26;;;;;;;3.73;2.43;;;19.50;23.20;;;;;;10433664;28;20229;-73
2022/07/16 03:02:30;;;;;;;3.33;2.80;;;19.30;23.90;;;;;;10430933;28;20225;-73
2022/07/16 03:07:33;;;;;;;2.63;2.43;;;19.20;23.70;;;;;;10431655;28;20240;-73
2022/07/16 03:12:38;;;;;;;2.80;2.60;;;19.00;23.80;;;;;;10433938;28;20229;-73
2022/07/16 03:17:41;;;;;;;2.80;2.60;;;18.90;24.60;;;;;;10434388;28;20733;-73
2022/07/16 03:22:45;;;;;;;3.30;2.43;;;18.80;24.50;;;;;;10436155;28;20233;-73
2022/07/16 03:27:50;;;;;;;2.60;2.37;;;18.60;24.40;;;;;;10431816;28;20233;-73
2022/07/16 03:32:53;;;;;;;2.57;2.37;;;18.50;24.30;;;;;;10427307;28;20252;-72
2022/07/16 03:43:18;;;;;;;3.37;2.50;;;18.30;24.20;;;;;;10429405;28;20221;-72
2022/07/16 03:48:22;;;;;;;4.13;2.57;;;18.20;25.00;;;;;;10430534;28;20259;-72
2022/07/16 03:53:25;;;;;;;2.73;2.53;;;18.20;24.50;;;;;;10426506;28;20240;-72
2022/07/16 03:58:30;;;;;;;2.60;2.40;;;18.00;24.70;;;;;;10425800;28;20229;-73
2022/07/16 04:03:34;;;;;;;3.00;2.70;;;17.80;25.10;;;;;;10422891;28;20224;-73
2022/07/16 04:08:38;;;;;;;3.67;2.53;;;17.70;25.30;;;;;;10428018;28;20233;-72
2022/07/16 04:13:42;;;;;;;3.43;2.53;;;17.70;25.30;;;;;;10423026;28;20228;-73
2022/07/16 04:18:46;;;;;;;2.93;2.57;;;17.70;26.00;;;;;;10434778;28;20228;-73
2022/07/16 04:23:50;;;;;;;2.60;2.40;;;17.70;25.60;;;;;;10437713;28;20227;-74
2022/07/16 04:28:54;;;;;;;4.00;2.90;;;17.80;25.80;;;;;;10430276;28;20240;-74
2022/07/16 04:33:58;;;;;;;4.77;3.10;;;17.90;26.40;;;;;;10437876;28;20229;-74
2022/07/16 04:39:01;;;;;;;5.20;2.87;;;17.90;26.00;;;;;;10439994;28;20588;-73
2022/07/16 04:44:06;;;;;;;4.90;3.13;;;18.00;26.10;;;;;;10434510;28;20862;-73
2022/07/16 04:49:09;;;;;;;6.17;2.80;;;18.00;26.70;;;;;;10437012;28;20229;-74
2022/07/16 04:54:12;;;;;;;3.93;2.87;;;18.10;26.30;;;;;;10435101;28;20236;-73
2022/07/16 04:59:17;;;;;;;3.03;2.83;;;18.10;26.40;;;;;;10437479;28;20721;-74
2022/07/16 05:04:20;;;;;;;3.47;3.00;;;18.20;26.90;;;;;;10435384;28;20229;-74
2022/07/16 05:09:23;;;;;;;3.10;2.87;;;18.20;26.70;;;;;;10433004;28;20248;-74
2022/07/16 05:14:28;;;;;;;5.63;3.00;;;18.20;26.80;;;;;;10433249;28;20239;-74
2022/07/16 05:19:31;;;;;;;3.30;2.57;;;18.30;27.30;;;;;;10433230;28;20240;-74
2022/07/16 05:24:36;;;;;;;3.57;2.80;;;18.40;26.80;;;;;;10432908;28;20233;-74
2022/07/16 05:29:40;;;;;;;3.33;2.60;;;18.50;27.30;;;;;;10431739;28;20324;-74
2022/07/16 05:34:44;;;;;;;5.23;2.80;;;18.60;27.20;;;;;;10435329;28;20221;-74
2022/07/16 05:39:47;;;;;;;5.33;2.80;;;18.80;26.80;;;;;;10437594;28;20232;-74
2022/07/16 05:44:51;;;;;;;3.20;3.00;;;18.80;26.50;;;;;;10436786;28;20328;-73
2022/07/16 05:49:55;;;;;;;2.97;2.67;;;18.90;27.10;;;;;;10430938;28;20278;-73
2022/07/16 05:54:58;;;;;;;2.93;2.63;;;18.90;26.60;;;;;;10433759;28;20221;-73
2022/07/16 06:00:03;;;;;;;2.97;2.73;;;19.00;26.70;;;;;;10434806;28;20224;-73
2022/07/16 06:05:07;;;;;;;3.10;2.80;;;19.00;27.10;;;;;;10425234;28;20217;-73
2022/07/16 06:10:11;;;;;;;3.70;2.57;;;19.10;26.90;;;;;;10429727;28;20241;-74
2022/07/16 06:15:15;;;;;;;3.20;2.90;;;19.20;26.80;;;;;;10435983;28;20248;-73
2022/07/16 06:20:18;;;;;;;3.20;2.90;;;19.30;27.20;;;;;;10435039;28;20239;-73
2022/07/16 06:25:22;;;;;;;3.27;2.77;;;19.50;27.60;;;;;;10433498;28;20239;-73
2022/07/16 06:30:26;;;;;;;2.87;2.60;;;19.70;27.00;;;;;;10434633;28;20225;-73
2022/07/16 06:35:30;;;;;;;4.20;2.40;;;19.90;27.50;;;;;;10432223;28;20600;-73
2022/07/16 06:40:33;;;;;;;3.03;2.83;;;20.10;27.10;;;;;;10427075;28;20232;-73
2022/07/16 06:45:38;;;;;;;2.80;2.60;;;20.30;27.00;;;;;;10429698;28;20232;-73
2022/07/16 06:50:41;;;;;;;3.07;2.37;;;20.50;27.20;;;;;;10431678;28;20229;-73
2022/07/16 06:55:44;;;;;;;2.50;2.30;;;20.70;26.70;;;;;;10431560;28;20233;-73
2022/07/16 07:00:49;;;;;;;2.50;2.30;;;20.90;26.70;;;;;;10431008;28;20225;-74
2022/07/16 07:05:52;;;;;;;2.73;2.53;;;21.10;26.90;;;;;;10424613;28;20224;-73
2022/07/16 07:10:55;;;;;;;2.57;2.27;;;21.40;26.90;;;;;;10431388;28;20624;-73
2022/07/16 07:16:00;;;;;;;2.33;2.13;;;21.60;26.40;;;;;;10431719;28;20228;-74
2022/07/16 07:21:04;;;;;;;2.67;2.17;;;21.80;26.60;;;;;;10430078;28;20246;-73
2022/07/16 07:26:07;;;;;;;2.97;2.33;;;22.00;26.20;;;;;;10430614;28;20225;-73
2022/07/16 07:31:12;;;;;;;1.83;1.70;;;22.20;26.00;;;;;;10431052;28;20247;-73
2022/07/16 07:36:20;;;;;;;3.10;1.90;;;22.40;25.20;;;;;;10432731;28;20287;-74
2022/07/16 07:41:24;;;;;;;1.90;1.80;;;22.60;25.10;;;;;;10431072;28;20604;-74
2022/07/16 07:46:29;;;;;;;2.67;1.80;;;22.80;25.30;;;;;;10435251;28;20239;-74
2022/07/16 07:51:32;;;;;;;2.90;1.80;;;23.00;24.60;;;;;;10437394;28;20239;-73
2022/07/16 07:56:35;;;;;;;2.10;1.90;;;23.20;24.60;;;;;;10439288;28;20709;-74
2022/07/16 08:01:40;;;;;;;2.83;2.00;;;23.40;24.80;;;;;;10437632;28;20227;-74
2022/07/16 08:06:44;;;;;;;3.17;2.00;;;23.60;24.00;;;;;;10439605;28;20311;-73
2022/07/16 08:11:47;;;;;;;2.13;1.80;;;23.80;23.90;;;;;;10438078;28;20221;-73
2022/07/16 08:16:52;;;;;;;1.87;1.77;;;24.00;23.70;;;;;;10443290;28;20225;-74
2022/07/16 08:21:56;;;;;;;2.20;2.00;;;24.20;23.40;;;;;;10440180;28;20232;-73
2022/07/16 08:26:59;;;;;;;2.27;1.93;;;24.40;23.10;;;;;;10437524;28;20228;-73
2022/07/16 08:32:04;;;;;;;2.63;1.80;;;24.50;22.80;;;;;;10441401;28;20228;-73
2022/07/16 08:37:10;;;;;;;2.10;1.87;;;24.70;22.20;;;;;;10439671;28;20221;-73
2022/07/16 08:42:13;;;;;;;2.73;1.80;;;24.70;21.60;;;;;;10439520;28;20237;-73
2022/07/16 08:47:19;;;;;;;2.57;2.00;;;24.70;22.10;;;;;;10438160;28;20567;-74
2022/07/16 08:52:27;;;;;;;3.17;2.10;;;24.80;21.70;;;;;;10433874;28;20233;-74
2022/07/16 08:57:31;;;;;;;1.97;1.77;;;24.90;21.70;;;;;;10436889;28;20585;-73
2022/07/16 09:02:36;;;;;;;2.23;2.00;;;25.00;21.90;;;;;;10438651;28;20263;-73
2022/07/16 09:07:39;;;;;;;1.90;1.80;;;25.10;20.90;;;;;;10430994;28;20233;-73
2022/07/16 09:12:44;;;;;;;2.30;2.20;;;25.20;21.60;;;;;;10434055;28;20228;-73
2022/07/16 09:18:13;;;;;;;2.40;1.80;;;25.40;21.50;;;;;;10434391;28;20230;-73
2022/07/16 09:23:31;;;;;;;2.73;2.23;;;25.60;20.50;;;;;;10435277;28;20233;-73
2022/07/16 09:28:43;;;;;;;1.80;1.70;;;25.80;19.00;;;;;;10433273;28;21182;-74
2022/07/16 09:34:01;;;;;;;1.90;1.80;;;25.90;20.50;;;;;;10433964;28;20236;-73
2022/07/16 09:39:06;;;;;;;2.00;1.87;;;26.00;19.40;;;;;;10431731;28;20216;-70
2022/07/16 09:44:15;;;;;;;1.87;1.40;;;26.10;19.40;;;;;;10435959;28;20230;-71
2022/07/16 09:49:22;;;;;;;1.87;1.50;;;26.30;19.20;;;;;;10430429;28;20233;-71
2022/07/16 09:54:27;;;;;;;3.10;1.70;;;26.40;18.00;;;;;;10427079;28;20626;-71
2022/07/16 09:59:31;;;;;;;1.67;1.50;;;26.50;18.80;;;;;;10424909;28;20224;-71
2022/07/16 10:04:56;;;;;;;1.60;1.50;;;26.70;19.40;;;;;;10427262;28;20217;-71
2022/07/16 10:10:07;;;;;;;1.80;1.70;;;26.80;17.90;;;;;;10422705;28;20304;-71
2022/07/16 10:15:11;;;;;;;1.60;1.50;;;27.00;18.80;;;;;;10429706;28;20225;-71
2022/07/16 10:20:20;;;;;;;1.60;1.50;;;27.10;18.10;;;;;;10426562;28;20692;-70
2022/07/16 10:25:27;;;;;;;1.67;1.57;;;27.10;16.70;;;;;;10433358;28;20225;-71
2022/07/16 10:30:31;;;;;;;2.43;1.83;;;27.20;17.10;;;;;;10429322;28;20232;-71
2022/07/16 10:35:37;;;;;;;1.80;1.70;;;27.20;17.30;;;;;;10426352;28;20739;-71
2022/07/16 10:40:43;;;;;;;1.70;1.50;;;27.30;16.90;;;;;;10429506;28;20241;-71
2022/07/16 10:45:52;;;;;;;2.10;1.60;;;27.30;17.30;;;;;;10431391;28;20225;-71
2022/07/16 10:51:15;;;;;;;1.80;1.70;;;27.40;16.10;;;;;;10429237;28;20837;-70
2022/07/16 10:56:32;;;;;;;1.60;1.50;;;27.60;16.30;;;;;;10428722;28;20225;-71
2022/07/16 11:01:36;;;;;;;2.80;1.67;;;27.70;14.50;;;;;;10431466;28;20282;-73
2022/07/16 11:06:48;;;;;;;1.70;1.60;;;27.90;16.40;;;;;;10428645;28;20235;-73
2022/07/16 11:11:52;;;;;;;1.70;1.60;;;27.90;15.80;;;;;;10428249;28;20739;-70
2022/07/16 11:16:56;;;;;;;1.67;1.40;;;28.10;16.30;;;;;;10423278;28;20310;-72
2022/07/16 11:22:03;;;;;;;1.87;1.77;;;28.20;16.10;;;;;;10421345;28;20232;-71
2022/07/16 11:27:07;;;;;;;1.63;1.53;;;28.30;15.20;;;;;;10414016;28;20267;-73
2022/07/16 11:32:14;;;;;;;2.13;1.70;;;28.20;15.80;;;;;;10399185;28;20282;-73
2022/07/16 11:37:19;;;;;;;1.90;1.70;;;28.30;15.20;;;;;;10421244;28;20895;-73
2022/07/16 11:42:23;;;;;;;1.87;1.77;;;28.20;15.80;;;;;;10419375;28;20236;-73
2022/07/16 11:47:26;;;;;;;3.20;2.00;;;28.30;15.90;;;;;;10409017;28;20225;-72
2022/07/16 11:52:32;;;;;;;1.90;1.70;;;28.30;15.80;;;;;;10411878;28;20315;-73
2022/07/16 11:57:56;;;;;;;1.87;1.73;;;28.30;15.30;;;;;;10414367;28;20221;-71
2022/07/16 12:02:59;;;;;;;2.10;1.67;;;28.40;15.50;;;;;;10420288;28;20247;-71
2022/07/16 12:08:06;;;;;;;1.97;1.73;;;28.50;15.80;;;;;;10417460;28;20224;-70
2022/07/16 12:13:29;;;;;;;1.53;1.43;;;28.60;15.20;;;;;;10414911;28;20260;-71
2022/07/16 12:18:33;;;;;;;1.97;1.50;;;28.70;15.00;;;;;;10418394;28;21001;-71
2022/07/16 12:23:38;;;;;;;2.50;1.53;;;28.70;14.70;;;;;;10416843;28;20229;-70
2022/07/16 12:28:52;;;;;;;1.60;1.37;;;28.70;14.90;;;;;;10415536;28;20232;-69
2022/07/16 12:33:58;;;;;;;3.20;1.30;;;28.70;15.40;;;;;;10422763;28;20313;-70
2022/07/16 12:39:06;;;;;;;2.03;1.53;;;28.80;14.90;;;;;;10426338;28;20226;-69
2022/07/16 12:44:11;;;;;;;1.30;1.20;;;28.90;15.10;;;;;;10424935;28;20604;-70
2022/07/16 12:49:16;;;;;;;2.67;1.33;;;28.90;15.00;;;;;;10423444;28;20235;-70
2022/07/16 12:54:21;;;;;;;1.83;1.23;;;29.00;14.30;;;;;;10426334;28;20233;-70
2022/07/16 12:59:26;;;;;;;1.93;1.40;;;29.00;14.60;;;;;;10426172;28;20232;-70
2022/07/16 13:04:29;;;;;;;1.50;1.40;;;29.10;14.30;;;;;;10434607;28;20243;-69
2022/07/16 13:09:34;;;;;;;1.53;1.43;;;29.10;14.00;;;;;;10428301;28;20228;-69
2022/07/16 13:14:37;;;;;;;2.33;1.30;;;29.10;13.70;;;;;;10424228;28;20229;-69
2022/07/16 13:19:41;;;;;;;1.77;1.47;;;29.10;13.90;;;;;;10429013;28;20304;-69
2022/07/16 13:24:45;;;;;;;1.30;1.20;;;29.10;14.20;;;;;;10428711;28;20229;-69
2022/07/16 13:29:49;;;;;;;1.53;1.23;;;29.10;13.60;;;;;;10427063;28;20705;-69
2022/07/16 13:34:52;;;;;;;1.30;1.20;;;29.10;13.60;;;;;;10420895;28;20220;-70
2022/07/16 13:39:57;;;;;;;1.30;1.20;;;29.10;13.80;;;;;;10414790;28;20236;-69
2022/07/16 13:45:01;;;;;;;2.60;1.27;;;29.20;14.00;;;;;;10414320;28;20223;-70
2022/07/16 13:50:06;;;;;;;1.47;1.20;;;29.30;13.70;;;;;;10426689;28;20244;-70
2022/07/16 13:55:11;;;;;;;1.43;1.30;;;29.40;13.70;;;;;;10430314;28;20263;-71
2022/07/16 14:00:15;;;;;;;1.20;1.10;;;29.30;13.50;;;;;;10431916;28;20232;-71
2022/07/16 14:05:18;;;;;;;1.70;1.30;;;29.40;13.10;;;;;;10432252;28;20221;-71
2022/07/16 14:10:23;;;;;;;7.93;1.87;;;29.40;12.90;;;;;;10430751;28;20736;-70
2022/07/16 14:15:29;;;;;;;1.40;1.20;;;29.30;12.80;;;;;;10433078;28;20239;-70
2022/07/16 14:20:33;;;;;;;1.33;1.23;;;29.30;12.90;;;;;;10432648;28;20236;-70
2022/07/16 14:25:38;;;;;;;1.60;1.50;;;29.20;13.10;;;;;;10434147;28;20898;-70
2022/07/16 14:30:43;;;;;;;1.30;1.20;;;29.30;12.50;;;;;;10433313;28;20225;-70
2022/07/16 14:35:46;;;;;;;1.33;1.23;;;29.30;12.80;;;;;;10429383;28;20286;-70
2022/07/16 14:40:51;;;;;;;1.93;1.23;;;29.20;13.00;;;;;;10426920;28;20235;-71
2022/07/16 14:45:58;;;;;;;1.73;1.40;;;29.20;12.40;;;;;;10430774;28;20251;-71
2022/07/16 14:51:02;;;;;;;1.47;1.37;;;29.20;12.80;;;;;;10426275;28;20588;-70
2022/07/16 14:56:08;;;;;;;1.37;1.27;;;29.20;12.70;;;;;;10424456;28;20249;-70
2022/07/16 15:01:11;;;;;;;1.40;1.30;;;29.30;12.10;;;;;;10438657;28;20241;-71
2022/07/16 15:06:14;;;;;;;2.43;1.23;;;29.30;12.40;;;;;;10442406;28;20244;-70
2022/07/16 15:11:19;;;;;;;1.30;1.13;;;29.30;12.30;;;;;;10434773;28;20233;-70
2022/07/16 15:16:22;;;;;;;2.30;1.50;;;29.30;11.80;;;;;;10432139;28;20236;-70
2022/07/16 15:21:25;;;;;;;1.80;1.40;;;29.30;12.00;;;;;;10425404;28;20233;-70
2022/07/16 15:26:30;;;;;;;1.53;1.30;;;29.20;11.80;;;;;;10424742;28;20993;-70
2022/07/16 15:31:36;;;;;;;1.30;1.20;;;29.10;11.80;;;;;;10429047;28;20231;-70
2022/07/16 15:36:40;;;;;;;1.17;1.10;;;29.20;11.70;;;;;;10422963;28;20276;-71
2022/07/16 15:41:45;;;;;;;1.40;1.20;;;29.20;12.00;;;;;;10425881;28;20221;-70
2022/07/16 15:46:48;;;;;;;2.07;1.10;;;29.20;11.90;;;;;;10425710;28;20225;-70
2022/07/16 15:51:51;;;;;;;1.93;1.30;;;29.30;11.90;;;;;;10418373;28;20701;-70
2022/07/16 15:56:56;;;;;;;1.50;1.40;;;29.30;11.80;;;;;;10424109;28;20228;-71
2022/07/16 16:01:59;;;;;;;1.30;1.20;;;29.20;11.40;;;;;;10427402;28;20225;-71
2022/07/16 16:07:03;;;;;;;1.43;1.10;;;29.10;12.30;;;;;;10430670;28;20217;-70
2022/07/16 16:12:17;;;;;;;3.47;1.40;;;29.10;11.80;;;;;;10423650;28;20224;-71
2022/07/16 16:17:21;;;;;;;1.30;1.20;;;29.10;11.50;;;;;;10441235;28;20237;-70
2022/07/16 16:22:24;;;;;;;1.40;1.30;;;29.10;11.90;;;;;;10434871;28;20239;-71
2022/07/16 16:27:29;;;;;;;3.13;1.33;;;29.10;11.80;;;;;;10427976;28;20229;-71
2022/07/16 16:32:33;;;;;;;1.87;1.77;;;29.10;11.50;;;;;;10429792;28;20239;-71
2022/07/16 16:37:36;;;;;;;1.53;1.40;;;29.00;11.80;;;;;;10433974;28;20229;-71
2022/07/16 16:42:41;;;;;;;1.80;1.50;;;29.00;11.80;;;;;;10423359;28;20229;-71
2022/07/16 16:47:45;;;;;;;1.57;1.47;;;29.10;11.80;;;;;;10440082;28;20225;-71
2022/07/16 16:52:48;;;;;;;1.60;1.40;;;29.10;11.60;;;;;;10429459;28;20364;-71
2022/07/16 16:57:53;;;;;;;5.23;1.80;;;29.20;11.80;;;;;;10431944;28;20249;-71
2022/07/16 17:02:56;;;;;;;1.67;1.50;;;29.20;11.80;;;;;;10430090;28;20235;-71
2022/07/16 17:07:59;;;;;;;1.40;1.30;;;29.20;11.70;;;;;;10423559;28;20218;-71
2022/07/16 17:13:04;;;;;;;1.53;1.43;;;29.30;11.80;;;;;;10432883;28;20229;-71
2022/07/16 17:18:07;;;;;;;1.60;1.50;;;29.30;11.60;;;;;;10426976;28;20217;-71
2022/07/16 17:23:11;;;;;;;1.50;1.40;;;29.30;11.50;;;;;;10433222;28;20698;-71
2022/07/16 17:28:16;;;;;;;1.40;1.30;;;29.30;12.30;;;;;;10434719;28;20250;-71
2022/07/16 17:33:21;;;;;;;1.47;1.37;;;29.30;11.20;;;;;;10430858;28;20226;-71
2022/07/16 17:38:25;;;;;;;3.73;1.37;;;29.20;11.30;;;;;;10433296;28;20233;-70
2022/07/16 17:43:29;;;;;;;1.60;1.50;;;29.10;11.50;;;;;;10425005;28;20236;-70
2022/07/16 17:53:50;;;;;;;2.47;2.10;;;29.00;11.50;;;;;;10437824;28;20229;-71
2022/07/16 17:58:55;;;;;;;10.23;9.23;;;29.00;11.70;;;;;;10425302;28;20287;-70
2022/07/16 18:04:00;;;;;;;4.23;3.83;;;29.00;11.60;;;;;;10431233;28;20221;-71
2022/07/16 18:09:04;;;;;;;2.90;2.70;;;29.10;11.50;;;;;;10423216;28;20217;-71
2022/07/16 18:14:10;;;;;;;3.47;2.80;;;29.00;11.50;;;;;;10421393;28;20233;-70
2022/07/16 18:19:13;;;;;;;2.80;2.40;;;29.00;11.40;;;;;;10414548;28;20916;-71
2022/07/16 18:24:17;;;;;;;2.40;2.30;;;29.00;11.80;;;;;;10423864;28;20225;-70
2022/07/16 18:29:21;;;;;;;2.20;2.00;;;28.90;11.80;;;;;;10426923;28;20233;-70
2022/07/16 18:34:25;;;;;;;2.60;1.60;;;28.90;12.00;;;;;;10429742;28;20240;-70
2022/07/16 18:39:28;;;;;;;1.77;1.67;;;28.90;12.00;;;;;;10445566;28;20708;-71
2022/07/16 18:44:32;;;;;;;1.83;1.73;;;28.90;12.10;;;;;;10431686;28;20236;-70
2022/07/16 18:49:36;;;;;;;1.90;1.60;;;28.80;12.00;;;;;;10418658;28;20623;-70
2022/07/16 18:54:39;;;;;;;1.90;1.70;;;28.70;12.10;;;;;;10425825;28;20807;-70
2022/07/16 18:59:44;;;;;;;1.60;1.50;;;28.70;12.40;;;;;;10429938;28;20233;-70
2022/07/16 19:04:47;;;;;;;1.80;1.70;;;28.60;12.40;;;;;;10428453;28;20221;-70
2022/07/16 19:09:51;;;;;;;1.80;1.50;;;28.60;12.50;;;;;;10431582;28;20229;-70
2022/07/16 19:14:55;;;;;;;1.73;1.60;;;28.60;12.80;;;;;;10425694;28;20218;-70
2022/07/16 19:19:58;;;;;;;1.83;1.70;;;28.50;12.80;;;;;;10427286;28;20733;-71
2022/07/16 19:25:02;;;;;;;1.60;1.50;;;28.50;12.90;;;;;;10427525;28;20228;-71
2022/07/16 19:30:08;;;;;;;1.70;1.60;;;28.50;13.00;;;;;;10426681;28;20780;-71
2022/07/16 19:35:12;;;;;;;1.47;1.20;;;28.40;12.90;;;;;;10422188;28;20837;-70
2022/07/16 19:40:16;;;;;;;1.93;1.80;;;28.20;13.10;;;;;;10429122;28;20233;-70
2022/07/16 19:45:22;;;;;;;1.70;1.60;;;28.10;13.30;;;;;;10439626;28;20212;-70
2022/07/16 19:50:25;;;;;;;1.67;1.50;;;28.00;13.60;;;;;;10433075;28;20235;-70
2022/07/16 20:00:50;;;;;;;2.37;2.17;;;27.80;13.90;;;;;;10426188;28;20233;-70
2022/07/16 20:05:54;;;;;;;3.83;1.90;;;27.60;14.10;;;;;;10428516;28;20317;-70
2022/07/16 20:10:57;;;;;;;3.40;1.90;;;27.50;14.00;;;;;;10434334;28;20232;-70
2022/07/16 20:16:02;;;;;;;1.80;1.53;;;27.40;14.20;;;;;;10434527;28;20249;-70
2022/07/16 20:21:06;;;;;;;2.10;2.00;;;27.30;14.50;;;;;;10434284;28;20228;-70
2022/07/16 20:26:09;;;;;;;1.93;1.70;;;27.10;14.40;;;;;;10427563;28;20249;-70
2022/07/16 20:31:14;;;;;;;2.23;2.13;;;26.90;14.40;;;;;;10424936;28;20229;-70
2022/07/16 20:36:17;;;;;;;3.10;2.90;;;26.60;15.00;;;;;;10425912;28;20591;-70
2022/07/16 20:41:21;;;;;;;2.40;2.20;;;26.30;15.10;;;;;;10434229;28;20780;-70
2022/07/16 20:46:25;;;;;;;2.80;2.40;;;26.00;14.90;;;;;;10437241;28;20787;-70
2022/07/16 20:51:29;;;;;;;3.40;2.43;;;25.70;15.60;;;;;;10433281;28;20248;-70
2022/07/16 20:56:32;;;;;;;5.13;3.33;;;25.40;15.50;;;;;;10429525;28;20237;-70
2022/07/16 21:01:37;;;;;;;3.93;3.30;;;25.10;16.10;;;;;;10430895;28;20291;-70
2022/07/16 21:06:41;;;;;;;8.00;3.20;;;25.00;16.80;;;;;;10425086;28;20949;-70
2022/07/16 21:11:44;;;;;;;7.00;2.83;;;24.90;16.80;;;;;;10431988;28;20228;-70
2022/07/16 21:16:48;;;;;;;4.40;2.50;;;24.80;16.90;;;;;;10433744;28;20320;-70
2022/07/16 21:21:53;;;;;;;2.57;2.37;;;24.60;17.30;;;;;;10425441;28;20229;-70
2022/07/16 21:26:56;;;;;;;3.77;2.57;;;24.40;17.30;;;;;;10432012;28;20221;-70
2022/07/16 21:32:01;;;;;;;2.40;2.20;;;24.30;17.50;;;;;;10429611;28;20229;-70
2022/07/16 21:37:04;;;;;;;2.77;2.50;;;24.30;18.10;;;;;;10434836;28;20228;-70
2022/07/16 21:42:08;;;;;;;2.73;2.47;;;24.20;17.70;;;;;;10424144;28;20224;-70
2022/07/16 21:47:13;;;;;;;4.17;2.50;;;24.00;17.90;;;;;;10424817;28;20241;-70
2022/07/16 21:52:16;;;;;;;3.87;2.30;;;23.80;17.70;;;;;;10435971;28;20229;-70
2022/07/16 21:57:19;;;;;;;2.37;2.17;;;23.50;17.50;;;;;;10435834;28;20225;-70
2022/07/16 22:02:24;;;;;;;2.60;2.40;;;23.20;17.80;;;;;;10437835;28;20235;-70
2022/07/16 22:07:27;;;;;;;2.63;2.43;;;22.90;18.40;;;;;;10427883;28;20260;-70
2022/07/16 22:12:31;;;;;;;7.23;2.63;;;22.70;18.50;;;;;;10440694;28;20275;-70
2022/07/16 22:17:36;;;;;;;3.40;2.60;;;22.50;18.90;;;;;;10434775;28;20235;-70
2022/07/16 22:22:39;;;;;;;5.23;2.80;;;22.50;19.50;;;;;;10431341;28;20231;-70
2022/07/16 22:27:42;;;;;;;3.53;2.10;;;22.60;19.30;;;;;;10438081;28;20224;-70
2022/07/16 22:32:47;;;;;;;3.33;2.70;;;22.60;19.40;;;;;;10431829;28;20231;-70
2022/07/16 22:37:51;;;;;;;3.23;2.50;;;22.60;19.50;;;;;;10435041;28;20756;-70
2022/07/16 22:42:55;;;;;;;2.93;2.63;;;22.40;19.20;;;;;;10427360;28;20226;-70
2022/07/16 22:48:00;;;;;;;2.40;2.20;;;22.30;19.40;;;;;;10434272;28;20220;-70
2022/07/16 22:53:04;;;;;;;2.47;2.27;;;22.20;19.80;;;;;;10429096;28;20221;-70
2022/07/16 22:58:07;;;;;;;2.77;2.43;;;22.10;19.70;;;;;;10430121;28;20694;-70
2022/07/16 23:03:12;;;;;;;2.53;2.33;;;21.90;19.70;;;;;;10425900;28;20225;-70
2022/07/16 23:08:16;;;;;;;3.37;2.20;;;21.80;20.10;;;;;;10440509;28;20243;-70
2022/07/16 23:13:19;;;;;;;2.60;2.40;;;21.70;19.90;;;;;;10427055;28;20235;-70
2022/07/16 23:18:24;;;;;;;2.80;2.57;;;21.60;20.10;;;;;;10431750;28;20309;-70
2022/07/16 23:23:27;;;;;;;4.80;2.80;;;21.50;20.60;;;;;;10431777;28;20229;-70
2022/07/16 23:28:31;;;;;;;3.07;2.40;;;21.50;20.40;;;;;;10429179;28;20232;-70
2022/07/16 23:33:35;;;;;;;4.53;2.60;;;21.30;20.30;;;;;;10432087;28;20243;-70
2022/07/16 23:38:40;;;;;;;3.13;2.83;;;21.10;20.70;;;;;;10429251;28;20225;-70
2022/07/16 23:43:43;;;;;;;3.47;2.90;;;20.90;20.80;;;;;;10432710;28;20758;-70
2022/07/16 23:48:48;;;;;;;2.83;2.57;;;20.90;21.00;;;;;;10436474;28;20638;-70
2022/07/16 23:53:52;;;;;;;2.60;2.40;;;20.90;21.70;;;;;;10431431;28;20293;-71
2022/07/16 23:58:55;;;;;;;3.00;2.50;;;20.90;21.40;;;;;;10430984;28;20229;-70
